sensor_id;sensor_type;location;lat;lon;timestamp;pressure;altitude;pressure_sealevel;temperature;humidity
76594;BME280;65482;50.240;14.302;2023-02-01T00:01:43;99474.91;;;4.56;62.22
76594;BME280;65482;50.240;14.302;2023-02-01T00:04:09;99479.81;;;4.50;62.29
76594;BME280;65482;50.240;14.302;2023-02-01T00:06:34;99485.97;;;4.49;62.11
76594;BME280;65482;50.240;14.302;2023-02-01T00:09:00;99471.88;;;4.40;61.95
76594;BME280;65482;50.240;14.302;2023-02-01T00:11:26;99468.69;;;4.25;62.42
76594;BME280;65482;50.240;14.302;2023-02-01T00:13:52;99471.78;;;4.19;62.43
76594;BME280;65482;50.240;14.302;2023-02-01T00:16:20;99471.56;;;4.11;63.01
76594;BME280;65482;50.240;14.302;2023-02-01T00:18:48;99473.34;;;4.10;62.77
76594;BME280;65482;50.240;14.302;2023-02-01T00:21:15;99472.16;;;4.14;62.86
76594;BME280;65482;50.240;14.302;2023-02-01T00:23:41;99476.06;;;4.20;62.70
76594;BME280;65482;50.240;14.302;2023-02-01T00:26:12;99472.84;;;4.28;62.50
76594;BME280;65482;50.240;14.302;2023-02-01T00:28:39;99474.38;;;4.30;62.51
76594;BME280;65482;50.240;14.302;2023-02-01T00:31:05;99484.56;;;4.33;62.72
76594;BME280;65482;50.240;14.302;2023-02-01T00:33:31;99481.47;;;4.39;62.57
76594;BME280;65482;50.240;14.302;2023-02-01T00:36:05;99479.72;;;4.40;62.66
76594;BME280;65482;50.240;14.302;2023-02-01T00:38:31;99476.13;;;4.41;63.48
76594;BME280;65482;50.240;14.302;2023-02-01T00:41:05;99475.31;;;4.41;63.65
76594;BME280;65482;50.240;14.302;2023-02-01T00:43:32;99467.59;;;4.39;63.59
76594;BME280;65482;50.240;14.302;2023-02-01T00:45:58;99469.75;;;4.34;64.30
76594;BME280;65482;50.240;14.302;2023-02-01T00:48:24;99464.75;;;4.31;64.45
76594;BME280;65482;50.240;14.302;2023-02-01T00:50:50;99466.88;;;4.26;64.50
76594;BME280;65482;50.240;14.302;2023-02-01T00:53:16;99476.63;;;4.24;64.60
76594;BME280;65482;50.240;14.302;2023-02-01T00:55:45;99476.19;;;4.18;64.83
76594;BME280;65482;50.240;14.302;2023-02-01T00:58:11;99482.47;;;4.16;65.35
76594;BME280;65482;50.240;14.302;2023-02-01T01:00:37;99484.38;;;4.14;65.08
76594;BME280;65482;50.240;14.302;2023-02-01T01:03:02;99487.91;;;4.13;65.69
76594;BME280;65482;50.240;14.302;2023-02-01T01:05:28;99492.06;;;4.15;65.53
76594;BME280;65482;50.240;14.302;2023-02-01T01:07:53;99496.56;;;4.13;65.67
76594;BME280;65482;50.240;14.302;2023-02-01T01:10:19;99486.72;;;4.17;65.46
76594;BME280;65482;50.240;14.302;2023-02-01T01:12:45;99489.22;;;4.18;66.02
76594;BME280;65482;50.240;14.302;2023-02-01T01:15:10;99494.81;;;4.14;65.77
76594;BME280;65482;50.240;14.302;2023-02-01T01:17:36;99485.19;;;4.14;65.77
76594;BME280;65482;50.240;14.302;2023-02-01T01:20:03;99489.22;;;4.18;65.50
76594;BME280;65482;50.240;14.302;2023-02-01T01:22:28;99491.63;;;4.10;65.96
76594;BME280;65482;50.240;14.302;2023-02-01T01:24:54;99485.09;;;4.05;66.17
76594;BME280;65482;50.240;14.302;2023-02-01T01:27:20;99478.44;;;4.12;65.81
76594;BME280;65482;50.240;14.302;2023-02-01T01:29:49;99479.38;;;4.11;65.95
76594;BME280;65482;50.240;14.302;2023-02-01T01:32:15;99478.44;;;4.12;65.57
76594;BME280;65482;50.240;14.302;2023-02-01T01:34:40;99480.81;;;4.15;65.56
76594;BME280;65482;50.240;14.302;2023-02-01T01:37:06;99483.28;;;4.16;65.05
76594;BME280;65482;50.240;14.302;2023-02-01T01:39:32;99489.94;;;4.21;64.98
76594;BME280;65482;50.240;14.302;2023-02-01T01:41:57;99483.03;;;4.19;64.75
76594;BME280;65482;50.240;14.302;2023-02-01T01:47:19;99493.25;;;4.23;63.88
76594;BME280;65482;50.240;14.302;2023-02-01T01:49:45;99491.56;;;4.22;63.81
76594;BME280;65482;50.240;14.302;2023-02-01T01:52:10;99493.63;;;4.18;64.11
76594;BME280;65482;50.240;14.302;2023-02-01T01:54:45;99486.50;;;4.20;63.46
76594;BME280;65482;50.240;14.302;2023-02-01T01:57:17;99489.44;;;4.27;63.36
76594;BME280;65482;50.240;14.302;2023-02-01T01:59:48;99482.22;;;4.30;62.85
76594;BME280;65482;50.240;14.302;2023-02-01T02:02:15;99490.38;;;4.37;62.78
76594;BME280;65482;50.240;14.302;2023-02-01T02:04:42;99493.47;;;4.42;62.25
76594;BME280;65482;50.240;14.302;2023-02-01T02:07:29;99490.50;;;4.47;61.67
76594;BME280;65482;50.240;14.302;2023-02-01T02:09:56;99486.94;;;4.48;61.67
76594;BME280;65482;50.240;14.302;2023-02-01T02:12:21;99489.06;;;4.43;61.02
76594;BME280;65482;50.240;14.302;2023-02-01T02:14:48;99484.34;;;4.36;61.06
76594;BME280;65482;50.240;14.302;2023-02-01T02:25:58;99495.28;;;4.08;61.25
76594;BME280;65482;50.240;14.302;2023-02-01T02:31:54;99508.09;;;4.11;60.99
76594;BME280;65482;50.240;14.302;2023-02-01T02:34:46;99503.81;;;4.21;60.57
76594;BME280;65482;50.240;14.302;2023-02-01T02:40:49;99513.78;;;4.38;59.41
76594;BME280;65482;50.240;14.302;2023-02-01T02:43:20;99508.28;;;4.42;59.46
76594;BME280;65482;50.240;14.302;2023-02-01T02:46:30;99513.06;;;4.48;58.75
76594;BME280;65482;50.240;14.302;2023-02-01T02:49:24;99509.09;;;4.53;58.06
76594;BME280;65482;50.240;14.302;2023-02-01T02:52:09;99499.25;;;4.57;57.74
76594;BME280;65482;50.240;14.302;2023-02-01T02:54:56;99491.19;;;4.60;57.68
76594;BME280;65482;50.240;14.302;2023-02-01T02:57:32;99495.09;;;4.66;57.48
76594;BME280;65482;50.240;14.302;2023-02-01T03:00:22;99491.38;;;4.68;57.71
76594;BME280;65482;50.240;14.302;2023-02-01T03:03:07;99485.91;;;4.71;57.42
76594;BME280;65482;50.240;14.302;2023-02-01T03:05:52;99479.16;;;4.69;57.42
76594;BME280;65482;50.240;14.302;2023-02-01T03:08:21;99490.19;;;4.72;57.69
76594;BME280;65482;50.240;14.302;2023-02-01T03:19:17;99479.63;;;4.74;58.64
76594;BME280;65482;50.240;14.302;2023-02-01T03:21:53;99474.25;;;4.75;58.99
76594;BME280;65482;50.240;14.302;2023-02-01T03:24:25;99466.41;;;4.75;58.83
76594;BME280;65482;50.240;14.302;2023-02-01T03:27:06;99450.28;;;4.70;59.21
76594;BME280;65482;50.240;14.302;2023-02-01T03:29:46;99449.31;;;4.71;59.54
76594;BME280;65482;50.240;14.302;2023-02-01T03:32:13;99456.34;;;4.71;59.56
76594;BME280;65482;50.240;14.302;2023-02-01T03:34:39;99446.50;;;4.63;59.89
76594;BME280;65482;50.240;14.302;2023-02-01T03:37:09;99453.78;;;4.60;60.00
76594;BME280;65482;50.240;14.302;2023-02-01T03:39:58;99452.00;;;4.60;59.98
76594;BME280;65482;50.240;14.302;2023-02-01T03:42:37;99451.63;;;4.53;60.01
76594;BME280;65482;50.240;14.302;2023-02-01T03:45:13;99449.28;;;4.50;60.02
76594;BME280;65482;50.240;14.302;2023-02-01T03:47:43;99448.47;;;4.38;60.24
76594;BME280;65482;50.240;14.302;2023-02-01T03:52:48;99448.16;;;4.32;60.08
76594;BME280;65482;50.240;14.302;2023-02-01T03:55:20;99452.78;;;4.28;60.58
76594;BME280;65482;50.240;14.302;2023-02-01T03:57:53;99462.25;;;4.29;60.32
76594;BME280;65482;50.240;14.302;2023-02-01T04:00:23;99459.19;;;4.24;60.54
76594;BME280;65482;50.240;14.302;2023-02-01T04:02:50;99464.66;;;4.21;60.50
76594;BME280;65482;50.240;14.302;2023-02-01T04:05:15;99458.28;;;4.14;60.60
76594;BME280;65482;50.240;14.302;2023-02-01T04:07:42;99463.50;;;4.14;60.79
76594;BME280;65482;50.240;14.302;2023-02-01T04:10:08;99461.22;;;4.09;60.68
76594;BME280;65482;50.240;14.302;2023-02-01T04:12:34;99463.00;;;4.09;60.90
76594;BME280;65482;50.240;14.302;2023-02-01T04:14:59;99459.56;;;4.08;60.66
76594;BME280;65482;50.240;14.302;2023-02-01T04:17:25;99458.00;;;4.06;60.62
76594;BME280;65482;50.240;14.302;2023-02-01T04:19:50;99455.78;;;4.01;61.12
76594;BME280;65482;50.240;14.302;2023-02-01T04:22:16;99453.16;;;4.01;60.84
76594;BME280;65482;50.240;14.302;2023-02-01T04:24:41;99451.53;;;4.00;61.01
76594;BME280;65482;50.240;14.302;2023-02-01T04:27:07;99450.22;;;3.94;60.93
76594;BME280;65482;50.240;14.302;2023-02-01T04:29:33;99448.44;;;3.95;60.92
76594;BME280;65482;50.240;14.302;2023-02-01T04:31:58;99444.88;;;3.96;60.42
76594;BME280;65482;50.240;14.302;2023-02-01T04:34:24;99450.31;;;3.93;60.54
76594;BME280;65482;50.240;14.302;2023-02-01T04:36:51;99438.22;;;3.92;60.81
76594;BME280;65482;50.240;14.302;2023-02-01T04:39:16;99438.59;;;3.87;60.72
76594;BME280;65482;50.240;14.302;2023-02-01T04:41:42;99434.19;;;3.88;61.15
76594;BME280;65482;50.240;14.302;2023-02-01T04:44:16;99429.94;;;3.87;61.26
76594;BME280;65482;50.240;14.302;2023-02-01T04:46:42;99426.50;;;3.86;61.15
76594;BME280;65482;50.240;14.302;2023-02-01T04:49:09;99418.53;;;3.88;60.90
76594;BME280;65482;50.240;14.302;2023-02-01T04:51:35;99423.75;;;3.88;61.66
76594;BME280;65482;50.240;14.302;2023-02-01T04:54:00;99414.38;;;3.85;61.39
76594;BME280;65482;50.240;14.302;2023-02-01T04:56:26;99407.38;;;3.86;61.38
76594;BME280;65482;50.240;14.302;2023-02-01T04:58:52;99396.22;;;3.84;61.80
76594;BME280;65482;50.240;14.302;2023-02-01T05:01:17;99405.72;;;3.85;61.95
76594;BME280;65482;50.240;14.302;2023-02-01T05:03:43;99412.97;;;3.81;62.01
76594;BME280;65482;50.240;14.302;2023-02-01T05:06:09;99414.75;;;3.81;61.99
76594;BME280;65482;50.240;14.302;2023-02-01T05:08:34;99404.22;;;3.82;61.99
76594;BME280;65482;50.240;14.302;2023-02-01T05:11:00;99406.09;;;3.80;62.19
76594;BME280;65482;50.240;14.302;2023-02-01T05:13:28;99392.09;;;3.81;61.72
76594;BME280;65482;50.240;14.302;2023-02-01T05:16:12;99396.94;;;3.86;61.97
76594;BME280;65482;50.240;14.302;2023-02-01T05:18:38;99394.22;;;3.87;62.33
76594;BME280;65482;50.240;14.302;2023-02-01T05:21:04;99387.91;;;3.90;61.75
76594;BME280;65482;50.240;14.302;2023-02-01T05:23:29;99385.09;;;3.93;61.47
76594;BME280;65482;50.240;14.302;2023-02-01T05:26:01;99388.50;;;3.93;62.02
76594;BME280;65482;50.240;14.302;2023-02-01T05:28:28;99395.16;;;3.97;61.71
76594;BME280;65482;50.240;14.302;2023-02-01T05:30:54;99397.19;;;3.94;61.31
76594;BME280;65482;50.240;14.302;2023-02-01T05:33:20;99391.72;;;3.97;61.64
76594;BME280;65482;50.240;14.302;2023-02-01T05:35:47;99388.28;;;3.96;61.26
76594;BME280;65482;50.240;14.302;2023-02-01T05:38:12;99399.81;;;3.94;61.11
76594;BME280;65482;50.240;14.302;2023-02-01T05:40:38;99400.38;;;3.97;61.32
76594;BME280;65482;50.240;14.302;2023-02-01T05:43:04;99398.47;;;3.99;60.78
76594;BME280;65482;50.240;14.302;2023-02-01T05:45:29;99389.69;;;4.01;61.18
76594;BME280;65482;50.240;14.302;2023-02-01T05:47:55;99390.28;;;4.04;61.12
76594;BME280;65482;50.240;14.302;2023-02-01T05:50:20;99389.31;;;4.05;60.79
76594;BME280;65482;50.240;14.302;2023-02-01T05:52:47;99385.06;;;4.04;60.71
76594;BME280;65482;50.240;14.302;2023-02-01T05:55:12;99382.69;;;4.12;61.10
76594;BME280;65482;50.240;14.302;2023-02-01T05:57:38;99381.13;;;4.10;60.94
76594;BME280;65482;50.240;14.302;2023-02-01T06:00:04;99372.13;;;4.14;61.26
76594;BME280;65482;50.240;14.302;2023-02-01T06:02:30;99374.59;;;4.15;60.77
76594;BME280;65482;50.240;14.302;2023-02-01T06:04:58;99381.59;;;4.15;60.87
76594;BME280;65482;50.240;14.302;2023-02-01T06:07:23;99375.66;;;4.24;61.11
76594;BME280;65482;50.240;14.302;2023-02-01T06:09:49;99368.53;;;4.26;61.55
76594;BME280;65482;50.240;14.302;2023-02-01T06:12:15;99361.63;;;4.25;61.33
76594;BME280;65482;50.240;14.302;2023-02-01T06:14:43;99357.97;;;4.28;61.60
76594;BME280;65482;50.240;14.302;2023-02-01T06:17:10;99361.13;;;4.31;62.02
76594;BME280;65482;50.240;14.302;2023-02-01T06:19:36;99362.69;;;4.34;61.73
76594;BME280;65482;50.240;14.302;2023-02-01T06:22:01;99361.84;;;4.33;62.24
76594;BME280;65482;50.240;14.302;2023-02-01T06:24:49;99356.97;;;4.40;62.20
76594;BME280;65482;50.240;14.302;2023-02-01T06:27:37;99354.47;;;4.38;61.52
76594;BME280;65482;50.240;14.302;2023-02-01T06:30:37;99348.34;;;4.49;62.13
76594;BME280;65482;50.240;14.302;2023-02-01T06:34:26;99354.09;;;4.43;62.25
76594;BME280;65482;50.240;14.302;2023-02-01T06:38:04;99342.22;;;4.39;62.26
76594;BME280;65482;50.240;14.302;2023-02-01T06:45:16;99342.72;;;4.33;62.42
76594;BME280;65482;50.240;14.302;2023-02-01T06:51:53;99338.47;;;4.32;63.39
76594;BME280;65482;50.240;14.302;2023-02-01T06:56:03;99335.88;;;4.32;63.52
76594;BME280;65482;50.240;14.302;2023-02-01T07:02:50;99335.41;;;4.27;64.18
76594;BME280;65482;50.240;14.302;2023-02-01T07:05:16;99333.03;;;4.24;64.22
76594;BME280;65482;50.240;14.302;2023-02-01T07:07:42;99332.91;;;4.25;64.44
76594;BME280;65482;50.240;14.302;2023-02-01T07:10:09;99331.25;;;4.24;64.14
76594;BME280;65482;50.240;14.302;2023-02-01T07:12:35;99336.22;;;4.27;64.23
76594;BME280;65482;50.240;14.302;2023-02-01T07:15:01;99337.06;;;4.28;64.35
76594;BME280;65482;50.240;14.302;2023-02-01T07:17:28;99335.00;;;4.31;64.49
76594;BME280;65482;50.240;14.302;2023-02-01T07:19:57;99338.09;;;4.36;64.05
76594;BME280;65482;50.240;14.302;2023-02-01T07:22:26;99333.44;;;4.40;64.17
76594;BME280;65482;50.240;14.302;2023-02-01T07:24:52;99329.63;;;4.44;64.35
76594;BME280;65482;50.240;14.302;2023-02-01T07:27:20;99335.28;;;4.49;64.11
76594;BME280;65482;50.240;14.302;2023-02-01T07:29:45;99328.16;;;4.51;64.01
76594;BME280;65482;50.240;14.302;2023-02-01T07:32:11;99332.69;;;4.49;63.20
76594;BME280;65482;50.240;14.302;2023-02-01T07:34:36;99332.88;;;4.57;63.49
76594;BME280;65482;50.240;14.302;2023-02-01T07:37:08;99333.59;;;4.60;63.70
76594;BME280;65482;50.240;14.302;2023-02-01T07:39:45;99339.06;;;4.56;63.68
76594;BME280;65482;50.240;14.302;2023-02-01T07:42:19;99331.22;;;4.56;63.90
76594;BME280;65482;50.240;14.302;2023-02-01T07:44:44;99331.81;;;4.60;63.08
76594;BME280;65482;50.240;14.302;2023-02-01T07:47:10;99336.91;;;4.62;62.88
76594;BME280;65482;50.240;14.302;2023-02-01T07:49:36;99335.56;;;4.67;62.98
76594;BME280;65482;50.240;14.302;2023-02-01T07:52:02;99338.44;;;4.64;63.23
76594;BME280;65482;50.240;14.302;2023-02-01T07:54:29;99341.50;;;4.69;63.03
76594;BME280;65482;50.240;14.302;2023-02-01T07:56:55;99340.44;;;4.72;62.88
76594;BME280;65482;50.240;14.302;2023-02-01T07:59:21;99330.41;;;4.77;62.88
76594;BME280;65482;50.240;14.302;2023-02-01T08:01:47;99318.63;;;4.83;62.75
76594;BME280;65482;50.240;14.302;2023-02-01T08:04:12;99312.34;;;4.95;62.39
76594;BME280;65482;50.240;14.302;2023-02-01T08:06:39;99309.72;;;4.95;62.35
76594;BME280;65482;50.240;14.302;2023-02-01T08:09:06;99319.25;;;4.96;62.45
76594;BME280;65482;50.240;14.302;2023-02-01T08:11:36;99308.16;;;5.04;62.11
76594;BME280;65482;50.240;14.302;2023-02-01T08:14:03;99307.75;;;5.08;61.99
76594;BME280;65482;50.240;14.302;2023-02-01T08:16:29;99305.00;;;5.10;62.35
76594;BME280;65482;50.240;14.302;2023-02-01T08:18:55;99308.19;;;5.13;62.24
76594;BME280;65482;50.240;14.302;2023-02-01T08:21:26;99301.19;;;5.14;62.10
76594;BME280;65482;50.240;14.302;2023-02-01T08:24:08;99299.81;;;5.20;61.89
76594;BME280;65482;50.240;14.302;2023-02-01T08:26:34;99303.50;;;5.17;61.96
76594;BME280;65482;50.240;14.302;2023-02-01T08:29:02;99302.44;;;5.20;62.09
76594;BME280;65482;50.240;14.302;2023-02-01T08:31:30;99293.75;;;5.19;61.92
76594;BME280;65482;50.240;14.302;2023-02-01T08:33:58;99295.53;;;5.18;61.47
76594;BME280;65482;50.240;14.302;2023-02-01T08:36:25;99295.72;;;5.27;61.29
76594;BME280;65482;50.240;14.302;2023-02-01T08:38:52;99294.09;;;5.35;60.81
76594;BME280;65482;50.240;14.302;2023-02-01T08:41:24;99291.53;;;5.55;60.82
76594;BME280;65482;50.240;14.302;2023-02-01T08:43:50;99288.41;;;5.71;60.20
76594;BME280;65482;50.240;14.302;2023-02-01T08:46:21;99293.66;;;5.90;59.79
76594;BME280;65482;50.240;14.302;2023-02-01T08:48:51;99294.13;;;5.95;59.17
76594;BME280;65482;50.240;14.302;2023-02-01T08:51:38;99279.34;;;5.94;58.31
76594;BME280;65482;50.240;14.302;2023-02-01T08:54:08;99286.00;;;6.08;57.42
76594;BME280;65482;50.240;14.302;2023-02-01T08:57:07;99290.69;;;6.24;57.44
76594;BME280;65482;50.240;14.302;2023-02-01T09:00:16;99273.16;;;6.44;56.98
76594;BME280;65482;50.240;14.302;2023-02-01T10:45:48;99277.28;;;5.88;60.60
76594;BME280;65482;50.240;14.302;2023-02-01T10:48:36;99268.34;;;5.81;61.05
76594;BME280;65482;50.240;14.302;2023-02-01T10:51:21;99263.47;;;5.76;61.37
76594;BME280;65482;50.240;14.302;2023-02-01T10:54:08;99257.84;;;5.71;61.91
76594;BME280;65482;50.240;14.302;2023-02-01T10:56:38;99261.94;;;5.64;60.95
76594;BME280;65482;50.240;14.302;2023-02-01T10:59:35;99262.38;;;5.60;61.28
76594;BME280;65482;50.240;14.302;2023-02-01T11:02:33;99261.25;;;5.62;60.73
76594;BME280;65482;50.240;14.302;2023-02-01T11:05:03;99256.59;;;5.66;60.71
76594;BME280;65482;50.240;14.302;2023-02-01T11:07:34;99257.69;;;5.63;60.43
76594;BME280;65482;50.240;14.302;2023-02-01T11:10:10;99253.31;;;5.73;60.22
76594;BME280;65482;50.240;14.302;2023-02-01T11:13:04;99249.72;;;5.74;59.79
76594;BME280;65482;50.240;14.302;2023-02-01T11:15:46;99265.16;;;5.77;59.69
76594;BME280;65482;50.240;14.302;2023-02-01T11:18:19;99267.47;;;5.81;59.65
76594;BME280;65482;50.240;14.302;2023-02-01T11:20:52;99270.78;;;5.83;59.34
76594;BME280;65482;50.240;14.302;2023-02-01T11:23:25;99280.72;;;5.89;58.92
76594;BME280;65482;50.240;14.302;2023-02-01T11:25:58;99278.94;;;5.89;58.55
76594;BME280;65482;50.240;14.302;2023-02-01T11:28:30;99271.84;;;6.11;59.24
76594;BME280;65482;50.240;14.302;2023-02-01T11:31:16;99283.66;;;6.34;60.19
76594;BME280;65482;50.240;14.302;2023-02-01T11:33:48;99286.28;;;6.34;59.40
76594;BME280;65482;50.240;14.302;2023-02-01T11:36:19;99285.59;;;6.32;58.48
76594;BME280;65482;50.240;14.302;2023-02-01T11:39:06;99285.88;;;6.29;58.85
76594;BME280;65482;50.240;14.302;2023-02-01T11:41:41;99287.00;;;6.27;59.00
76594;BME280;65482;50.240;14.302;2023-02-01T11:44:43;99286.00;;;6.37;58.39
76594;BME280;65482;50.240;14.302;2023-02-01T11:47:29;99289.00;;;6.62;58.12
76594;BME280;65482;50.240;14.302;2023-02-01T11:50:18;99287.47;;;6.79;57.72
76594;BME280;65482;50.240;14.302;2023-02-01T11:56:14;99294.88;;;6.93;56.73
76594;BME280;65482;50.240;14.302;2023-02-01T12:05:24;99281.53;;;6.87;57.08
76594;BME280;65482;50.240;14.302;2023-02-01T12:12:35;99271.41;;;6.92;56.28
76594;BME280;65482;50.240;14.302;2023-02-01T12:21:46;99294.22;;;7.29;53.90
76594;BME280;65482;50.240;14.302;2023-02-01T12:44:47;99277.88;;;6.31;58.15
76594;BME280;65482;50.240;14.302;2023-02-01T12:50:13;99262.00;;;6.42;57.08
76594;BME280;65482;50.240;14.302;2023-02-01T12:52:52;99248.19;;;6.60;56.00
76594;BME280;65482;50.240;14.302;2023-02-01T13:24:50;99239.94;;;7.29;49.29
76594;BME280;65482;50.240;14.302;2023-02-01T13:27:32;99243.69;;;7.27;49.91
76594;BME280;65482;50.240;14.302;2023-02-01T13:30:12;99241.28;;;7.33;49.69
76594;BME280;65482;50.240;14.302;2023-02-01T13:35:37;99236.13;;;7.42;49.91
76594;BME280;65482;50.240;14.302;2023-02-01T13:43:51;99239.09;;;7.56;49.66
76594;BME280;65482;50.240;14.302;2023-02-01T13:46:21;99231.59;;;7.62;49.41
76594;BME280;65482;50.240;14.302;2023-02-01T13:49:01;99238.97;;;7.58;49.66
76594;BME280;65482;50.240;14.302;2023-02-01T13:51:35;99232.84;;;7.57;48.16
76594;BME280;65482;50.240;14.302;2023-02-01T13:54:03;99228.75;;;7.55;48.46
76594;BME280;65482;50.240;14.302;2023-02-01T13:56:39;99223.78;;;7.52;48.15
76594;BME280;65482;50.240;14.302;2023-02-01T14:10:54;99221.31;;;7.50;49.65
76594;BME280;65482;50.240;14.302;2023-02-01T14:21:34;99226.53;;;7.32;50.99
76594;BME280;65482;50.240;14.302;2023-02-01T14:24:20;99239.56;;;7.24;51.91
76594;BME280;65482;50.240;14.302;2023-02-01T14:26:49;99223.19;;;7.12;52.52
76594;BME280;65482;50.240;14.302;2023-02-01T14:29:35;99219.47;;;7.05;51.32
76594;BME280;65482;50.240;14.302;2023-02-01T14:32:16;99223.06;;;7.04;52.31
76594;BME280;65482;50.240;14.302;2023-02-01T14:42:29;99217.38;;;6.81;52.09
76594;BME280;65482;50.240;14.302;2023-02-01T14:47:42;99227.63;;;6.74;52.97
76594;BME280;65482;50.240;14.302;2023-02-01T14:58:53;99225.84;;;6.55;52.55
76594;BME280;65482;50.240;14.302;2023-02-01T15:01:27;99228.91;;;6.51;52.64
76594;BME280;65482;50.240;14.302;2023-02-01T15:03:57;99230.28;;;6.45;52.75
76594;BME280;65482;50.240;14.302;2023-02-01T15:06:47;99227.13;;;6.42;53.11
76594;BME280;65482;50.240;14.302;2023-02-01T15:09:16;99220.78;;;6.34;53.24
76594;BME280;65482;50.240;14.302;2023-02-01T15:12:23;99229.22;;;6.18;53.44
76594;BME280;65482;50.240;14.302;2023-02-01T15:15:30;99238.31;;;6.14;53.98
76594;BME280;65482;50.240;14.302;2023-02-01T15:17:59;99236.94;;;6.10;54.62
76594;BME280;65482;50.240;14.302;2023-02-01T15:20:32;99233.75;;;6.07;54.21
76594;BME280;65482;50.240;14.302;2023-02-01T15:25:36;99233.34;;;5.92;55.00
76594;BME280;65482;50.240;14.302;2023-02-01T15:28:04;99223.13;;;5.89;55.15
76594;BME280;65482;50.240;14.302;2023-02-01T15:30:33;99226.97;;;5.85;55.25
76594;BME280;65482;50.240;14.302;2023-02-01T15:35:48;99215.97;;;5.71;56.12
76594;BME280;65482;50.240;14.302;2023-02-01T15:41:10;99214.28;;;5.61;56.41
76594;BME280;65482;50.240;14.302;2023-02-01T15:43:43;99208.34;;;5.49;56.95
76594;BME280;65482;50.240;14.302;2023-02-01T15:46:15;99208.63;;;5.36;57.33
76594;BME280;65482;50.240;14.302;2023-02-01T15:48:44;99206.50;;;5.20;57.96
76594;BME280;65482;50.240;14.302;2023-02-01T15:51:16;99204.69;;;5.11;58.14
76594;BME280;65482;50.240;14.302;2023-02-01T15:53:51;99213.75;;;5.07;59.06
76594;BME280;65482;50.240;14.302;2023-02-01T15:56:22;99211.97;;;4.97;59.19
76594;BME280;65482;50.240;14.302;2023-02-01T15:58:53;99206.16;;;4.94;59.03
76594;BME280;65482;50.240;14.302;2023-02-01T16:01:20;99205.59;;;4.90;58.88
76594;BME280;65482;50.240;14.302;2023-02-01T16:03:46;99208.19;;;4.90;59.18
76594;BME280;65482;50.240;14.302;2023-02-01T16:08:54;99214.84;;;5.04;59.14
76594;BME280;65482;50.240;14.302;2023-02-01T16:11:23;99209.50;;;5.06;58.45
76594;BME280;65482;50.240;14.302;2023-02-01T16:13:53;99206.72;;;5.07;58.20
76594;BME280;65482;50.240;14.302;2023-02-01T16:16:23;99200.56;;;5.08;58.36
76594;BME280;65482;50.240;14.302;2023-02-01T16:18:52;99192.31;;;5.13;58.33
76594;BME280;65482;50.240;14.302;2023-02-01T16:21:17;99188.22;;;5.20;57.54
76594;BME280;65482;50.240;14.302;2023-02-01T16:23:48;99184.91;;;5.18;57.62
76594;BME280;65482;50.240;14.302;2023-02-01T16:26:16;99194.38;;;5.19;57.38
76594;BME280;65482;50.240;14.302;2023-02-01T16:28:42;99204.16;;;5.17;57.37
76594;BME280;65482;50.240;14.302;2023-02-01T16:31:14;99191.63;;;5.21;57.21
76594;BME280;65482;50.240;14.302;2023-02-01T16:33:49;99188.34;;;5.18;56.66
76594;BME280;65482;50.240;14.302;2023-02-01T16:36:15;99177.47;;;5.23;56.46
76594;BME280;65482;50.240;14.302;2023-02-01T16:38:56;99168.41;;;5.27;56.38
76594;BME280;65482;50.240;14.302;2023-02-01T16:41:23;99168.25;;;5.29;55.99
76594;BME280;65482;50.240;14.302;2023-02-01T16:43:52;99164.69;;;5.30;56.35
76594;BME280;65482;50.240;14.302;2023-02-01T16:46:20;99156.56;;;5.33;56.39
76594;BME280;65482;50.240;14.302;2023-02-01T16:48:52;99154.50;;;5.36;56.66
76594;BME280;65482;50.240;14.302;2023-02-01T16:51:19;99146.66;;;5.36;56.39
76594;BME280;65482;50.240;14.302;2023-02-01T16:53:46;99141.00;;;5.41;56.09
76594;BME280;65482;50.240;14.302;2023-02-01T16:56:21;99128.91;;;5.40;56.50
76594;BME280;65482;50.240;14.302;2023-02-01T16:58:48;99130.16;;;5.46;55.99
76594;BME280;65482;50.240;14.302;2023-02-01T17:01:18;99131.25;;;5.53;55.63
76594;BME280;65482;50.240;14.302;2023-02-01T17:03:44;99131.53;;;5.50;55.96
76594;BME280;65482;50.240;14.302;2023-02-01T17:06:14;99132.22;;;5.52;55.37
76594;BME280;65482;50.240;14.302;2023-02-01T17:08:42;99120.09;;;5.51;55.55
76594;BME280;65482;50.240;14.302;2023-02-01T17:11:13;99116.22;;;5.55;55.91
76594;BME280;65482;50.240;14.302;2023-02-01T17:13:39;99111.44;;;5.50;55.92
76594;BME280;65482;50.240;14.302;2023-02-01T17:16:28;99097.41;;;5.51;55.40
76594;BME280;65482;50.240;14.302;2023-02-01T17:18:59;99102.34;;;5.54;55.64
76594;BME280;65482;50.240;14.302;2023-02-01T17:21:29;99099.16;;;5.51;55.59
76594;BME280;65482;50.240;14.302;2023-02-01T17:23:55;99100.69;;;5.53;55.88
76594;BME280;65482;50.240;14.302;2023-02-01T17:26:23;99105.94;;;5.53;56.02
76594;BME280;65482;50.240;14.302;2023-02-01T17:28:48;99101.53;;;5.54;55.82
76594;BME280;65482;50.240;14.302;2023-02-01T17:31:14;99099.31;;;5.49;55.58
76594;BME280;65482;50.240;14.302;2023-02-01T17:33:40;99089.00;;;5.48;56.04
76594;BME280;65482;50.240;14.302;2023-02-01T17:36:11;99087.88;;;5.41;56.57
76594;BME280;65482;50.240;14.302;2023-02-01T17:38:37;99082.66;;;5.41;56.61
76594;BME280;65482;50.240;14.302;2023-02-01T17:41:05;99076.03;;;5.36;56.32
76594;BME280;65482;50.240;14.302;2023-02-01T17:43:32;99079.63;;;5.26;57.13
76594;BME280;65482;50.240;14.302;2023-02-01T17:46:16;99080.03;;;5.21;57.31
76594;BME280;65482;50.240;14.302;2023-02-01T17:48:45;99083.19;;;5.15;58.27
76594;BME280;65482;50.240;14.302;2023-02-01T17:51:19;99082.94;;;5.18;57.89
76594;BME280;65482;50.240;14.302;2023-02-01T17:53:45;99091.16;;;5.23;58.25
76594;BME280;65482;50.240;14.302;2023-02-01T17:56:14;99091.47;;;5.20;58.04
76594;BME280;65482;50.240;14.302;2023-02-01T17:58:41;99081.25;;;5.17;58.38
76594;BME280;65482;50.240;14.302;2023-02-01T18:01:12;99081.81;;;5.21;58.62
76594;BME280;65482;50.240;14.302;2023-02-01T18:03:38;99063.94;;;5.16;58.68